createdAt,value
2018-08-23T00:00:48.216Z,51.92
2018-08-23T00:03:22.573Z,51.99
2018-08-23T00:05:54.461Z,51.66
2018-08-23T00:08:24.022Z,51.74
2018-08-23T00:10:53.958Z,51.69
2018-08-23T00:13:23.323Z,51.87
2018-08-23T00:15:52.480Z,51.73
2018-08-23T00:18:21.563Z,52.02
2018-08-23T00:20:50.775Z,52.06
2018-08-23T00:23:19.875Z,51.95
2018-08-23T00:25:48.997Z,51.87
2018-08-23T00:28:18.052Z,52.19
2018-08-23T00:30:47.159Z,52.53
2018-08-23T00:33:16.235Z,52.30
2018-08-23T00:35:45.302Z,52.22
2018-08-23T00:38:14.447Z,52.30
2018-08-23T00:40:44.826Z,51.95
2018-08-23T00:43:15.043Z,52.03
2018-08-23T00:45:44.147Z,52.29
2018-08-23T00:48:13.471Z,52.06
2018-08-23T00:50:52.643Z,52.22
2018-08-23T00:53:21.801Z,52.20
2018-08-23T00:56:02.768Z,52.34
2018-08-23T00:58:31.880Z,52.62
2018-08-23T01:01:02.760Z,52.14
2018-08-23T01:03:32.020Z,52.64
2018-08-23T01:06:01.134Z,52.76
2018-08-23T01:08:33.151Z,52.75
2018-08-23T01:11:03.065Z,52.37
2018-08-23T01:13:32.124Z,52.76
2018-08-23T01:16:01.192Z,52.98
2018-08-23T01:18:30.277Z,52.95
2018-08-23T01:20:59.330Z,53.07
2018-08-23T01:23:28.486Z,53.18
2018-08-23T01:25:57.586Z,52.91
2018-08-23T01:28:26.660Z,52.87
2018-08-23T01:30:55.875Z,52.99
2018-08-23T01:33:24.932Z,52.77
2018-08-23T01:35:53.990Z,53.07
2018-08-23T01:38:23.156Z,53.13
2018-08-23T01:40:58.336Z,52.96
2018-08-23T01:43:27.430Z,53.30
2018-08-23T01:45:56.558Z,53.21
2018-08-23T01:48:25.758Z,52.89
2018-08-23T01:50:54.820Z,53.28
2018-08-23T01:53:28.460Z,53.10
2018-08-23T01:55:57.592Z,53.45
2018-08-23T01:58:26.677Z,53.22
2018-08-23T02:01:11.842Z,53.20
2018-08-23T02:03:41.042Z,53.44
2018-08-23T02:06:11.788Z,53.57
2018-08-23T02:08:42.529Z,53.19
2018-08-23T02:11:11.616Z,53.38
2018-08-23T02:13:40.810Z,53.47
2018-08-23T02:16:09.876Z,53.84
2018-08-23T02:18:38.926Z,54.14
2018-08-23T02:21:10.628Z,54.09
2018-08-23T02:23:45.543Z,53.71
2018-08-23T02:26:15.172Z,54.20
2018-08-23T02:28:45.376Z,53.77
2018-08-23T02:31:14.500Z,53.70
2018-08-23T02:33:43.589Z,54.05
2018-08-23T02:36:19.028Z,54.11
2018-08-23T02:38:53.519Z,54.00
2018-08-23T02:41:22.691Z,54.07
2018-08-23T02:43:51.798Z,53.88
2018-08-23T02:46:20.981Z,53.78
2018-08-23T02:48:50.046Z,53.57
2018-08-23T02:51:19.096Z,53.96
2018-08-23T02:53:52.024Z,54.11
2018-08-23T02:56:21.694Z,54.11
2018-08-23T02:58:57.013Z,53.66
2018-08-23T03:01:27.946Z,53.90
2018-08-23T03:04:09.858Z,53.81
2018-08-23T03:06:43.939Z,54.08
2018-08-23T03:09:13.043Z,54.07
2018-08-23T03:11:42.107Z,53.59
2018-08-23T03:14:11.689Z,53.90
2018-08-23T03:16:52.183Z,53.71
2018-08-23T03:19:21.286Z,53.73
2018-08-23T03:21:59.473Z,53.89
2018-08-23T03:24:28.634Z,53.58
2018-08-23T03:26:57.699Z,54.20
2018-08-23T03:29:26.752Z,53.95
2018-08-23T03:31:55.879Z,54.19
2018-08-23T03:34:24.935Z,54.24
2018-08-23T03:36:54.021Z,53.87
2018-08-23T03:39:23.167Z,53.76
2018-08-23T03:41:52.267Z,53.89
2018-08-23T03:44:26.599Z,54.16
2018-08-23T03:46:56.111Z,53.70
2018-08-23T03:49:27.004Z,54.16
2018-08-23T03:51:56.355Z,53.67
2018-08-23T03:54:25.415Z,54.03
2018-08-23T03:57:11.399Z,54.02
2018-08-23T03:59:43.301Z,54.11
2018-08-23T04:02:13.219Z,54.11
2018-08-23T04:04:42.707Z,54.09
2018-08-23T04:07:11.783Z,53.82
2018-08-23T04:09:41.055Z,53.76
2018-08-23T04:12:10.197Z,54.08
2018-08-23T04:14:39.364Z,54.07
2018-08-23T04:17:09.672Z,54.07
2018-08-23T04:19:49.627Z,53.61
2018-08-23T04:22:18.743Z,53.50
2018-08-23T04:24:56.381Z,53.75
2018-08-23T04:27:25.595Z,53.68
2018-08-23T04:29:54.679Z,53.84
2018-08-23T04:32:29.327Z,53.83
2018-08-23T04:35:00.042Z,53.60
2018-08-23T04:37:30.199Z,53.52
2018-08-23T04:40:04.029Z,53.77
2018-08-23T04:42:33.219Z,53.46
2018-08-23T04:45:13.595Z,53.33
2018-08-23T04:47:49.427Z,53.48
2018-08-23T04:50:18.545Z,54.06
2018-08-23T04:52:47.733Z,53.94
2018-08-23T04:55:16.796Z,53.97
2018-08-23T04:57:45.935Z,53.75
2018-08-23T05:00:15.001Z,54.35
2018-08-23T05:02:44.059Z,54.52
2018-08-23T05:05:13.241Z,54.43
2018-08-23T05:07:42.329Z,55.23
2018-08-23T05:10:11.523Z,54.38
2018-08-23T05:12:41.739Z,54.71
2018-08-23T05:15:10.932Z,54.33
2018-08-23T05:17:40.206Z,54.57
2018-08-23T05:20:09.608Z,54.50
2018-08-23T05:22:39.315Z,54.61
2018-08-23T05:25:15.852Z,54.38
2018-08-23T05:28:01.595Z,54.30
2018-08-23T05:30:30.696Z,53.67
2018-08-23T05:33:17.587Z,53.40
2018-08-23T05:35:46.775Z,53.63
2018-08-23T05:38:16.399Z,53.13
2018-08-23T05:40:47.024Z,53.25
2018-08-23T05:43:16.732Z,53.13
2018-08-23T05:45:55.359Z,53.10
2018-08-23T05:48:31.872Z,53.20
2018-08-23T05:51:02.909Z,52.95
2018-08-23T05:53:32.017Z,52.64
2018-08-23T05:56:01.769Z,52.91
2018-08-23T05:58:32.918Z,52.98
2018-08-23T06:01:02.327Z,52.67
2018-08-23T06:03:31.469Z,52.63
2018-08-23T06:06:00.579Z,52.53
2018-08-23T06:08:29.704Z,52.21
2018-08-23T06:11:05.308Z,52.31
2018-08-23T06:13:34.539Z,52.39
2018-08-23T06:16:03.625Z,52.49
2018-08-23T06:18:32.783Z,52.61
2018-08-23T06:21:01.888Z,52.31
2018-08-23T06:23:58.843Z,52.32
2018-08-23T06:26:50.947Z,52.35
2018-08-23T06:29:22.331Z,52.41
2018-08-23T06:32:10.632Z,52.13
2018-08-23T06:34:45.687Z,52.26
2018-08-23T06:37:15.203Z,52.27
2018-08-23T06:39:44.349Z,52.46
2018-08-23T06:42:13.521Z,52.54
2018-08-23T06:44:47.965Z,52.33
2018-08-23T06:47:18.420Z,52.18
2018-08-23T06:49:48.727Z,52.37
2018-08-23T06:52:27.985Z,52.09
2018-08-23T06:54:57.137Z,51.73
2018-08-23T06:57:27.429Z,52.00
2018-08-23T06:59:56.527Z,51.79
2018-08-23T07:02:25.599Z,52.12
2018-08-23T07:04:54.699Z,51.86
2018-08-23T07:07:23.810Z,52.00
2018-08-23T07:09:52.915Z,52.24
2018-08-23T07:12:22.011Z,52.00
2018-08-23T07:14:51.463Z,52.40
2018-08-23T07:17:26.862Z,52.05
2018-08-23T07:20:00.141Z,52.15
2018-08-23T07:22:29.240Z,52.16
2018-08-23T07:24:59.464Z,52.19
2018-08-23T07:27:28.544Z,52.27
2018-08-23T07:29:58.955Z,52.47
2018-08-23T07:32:31.128Z,52.38
2018-08-23T07:35:05.837Z,52.66
2018-08-23T07:37:36.382Z,52.44
2018-08-23T07:40:10.203Z,52.61
2018-08-23T07:42:40.506Z,52.65
2018-08-23T07:45:10.213Z,52.81
2018-08-23T07:47:43.515Z,52.99
2018-08-23T07:50:12.768Z,52.76
2018-08-23T07:52:43.937Z,52.58
2018-08-23T07:55:13.212Z,52.92
2018-08-23T07:57:42.548Z,52.92
2018-08-23T08:00:38.028Z,53.93
2018-08-23T08:03:07.588Z,53.34
2018-08-23T08:05:37.645Z,53.41
2018-08-23T08:08:07.496Z,54.64
2018-08-23T08:10:43.967Z,53.90
2018-08-23T08:13:13.078Z,54.20
2018-08-23T08:15:42.189Z,55.32
2018-08-23T08:18:16.070Z,54.86
2018-08-23T08:20:51.045Z,54.17
2018-08-23T08:23:20.307Z,54.59
2018-08-23T08:25:49.847Z,54.03
2018-08-23T08:28:19.514Z,53.55
2018-08-23T08:30:53.091Z,53.46
2018-08-23T08:33:22.844Z,53.86
2018-08-23T08:35:56.239Z,53.73
2018-08-23T08:38:25.328Z,53.29
2018-08-23T08:40:54.424Z,53.26
2018-08-23T08:43:23.592Z,52.99
2018-08-23T08:45:56.093Z,53.09
2018-08-23T08:48:31.538Z,53.71
2018-08-23T08:51:20.920Z,53.32
2018-08-23T08:53:50.612Z,53.46
2018-08-23T08:56:28.022Z,53.24
2018-08-23T08:58:57.145Z,53.16
2018-08-23T09:01:26.419Z,53.05
2018-08-23T09:04:01.075Z,53.47
2018-08-23T09:06:45.971Z,53.53
2018-08-23T09:09:30.554Z,53.27
2018-08-23T09:12:06.770Z,53.12
2018-08-23T09:14:42.404Z,53.98
2018-08-23T09:17:28.206Z,53.32
2018-08-23T09:20:08.297Z,53.41
2018-08-23T09:22:42.868Z,53.11
2018-08-23T09:25:17.036Z,53.24
2018-08-23T09:27:48.635Z,53.19
2018-08-23T09:30:23.189Z,52.76
2018-08-23T09:32:52.357Z,52.19
2018-08-23T09:35:24.805Z,52.35
2018-08-23T09:37:56.759Z,52.23
2018-08-23T09:40:26.714Z,52.29
2018-08-23T09:42:55.996Z,52.42
2018-08-23T09:45:25.345Z,52.61
2018-08-23T09:47:54.724Z,52.57
2018-08-23T09:50:23.798Z,52.48
2018-08-23T09:52:52.898Z,52.91
2018-08-23T09:55:24.995Z,52.53
2018-08-23T09:57:54.116Z,53.00
2018-08-23T10:00:25.347Z,52.78
2018-08-23T10:02:59.778Z,52.59
2018-08-23T10:05:34.196Z,52.71
2018-08-23T10:08:08.964Z,52.79
2018-08-23T10:10:43.356Z,52.90
2018-08-23T10:13:17.768Z,52.61
2018-08-23T10:15:52.182Z,52.64
2018-08-23T10:18:27.119Z,52.48
2018-08-23T10:20:59.235Z,52.60
2018-08-23T10:23:28.409Z,52.49
2018-08-23T10:25:59.006Z,52.66
2018-08-23T10:28:38.862Z,52.56
2018-08-23T10:31:13.572Z,51.99
2018-08-23T10:33:42.678Z,52.17
2018-08-23T10:36:11.762Z,51.95
2018-08-23T10:38:40.882Z,52.29
2018-08-23T10:41:10.082Z,52.09
2018-08-23T10:43:44.366Z,52.09
2018-08-23T10:46:13.496Z,52.38
2018-08-23T10:48:42.726Z,52.40
2018-08-23T10:51:12.242Z,52.49
2018-08-23T10:53:41.376Z,52.44
2018-08-23T10:56:10.566Z,52.28
2018-08-23T10:58:39.669Z,51.95
2018-08-23T11:01:08.859Z,52.17
2018-08-23T11:03:37.966Z,52.22
2018-08-23T11:06:07.070Z,52.23
2018-08-23T11:08:37.643Z,52.28
2018-08-23T11:11:12.040Z,52.13
2018-08-23T11:13:46.286Z,52.12
2018-08-23T11:16:20.655Z,52.69
2018-08-23T11:18:55.088Z,52.11
2018-08-23T11:21:24.262Z,52.53
2018-08-23T11:23:53.356Z,52.44
2018-08-23T11:26:24.988Z,52.03
2018-08-23T11:28:54.054Z,52.14
2018-08-23T11:31:30.540Z,52.26
2018-08-23T11:33:59.728Z,52.28
2018-08-23T11:36:28.839Z,52.11
2018-08-23T11:38:57.959Z,52.03
2018-08-23T11:41:27.151Z,51.84
2018-08-23T11:43:56.285Z,52.13
2018-08-23T11:46:25.414Z,52.00
2018-08-23T11:48:54.553Z,52.17
2018-08-23T11:51:23.795Z,52.07
2018-08-23T11:53:52.940Z,52.13
2018-08-23T11:56:22.175Z,51.72
2018-08-23T11:58:51.246Z,51.75
2018-08-23T12:01:20.365Z,51.57
2018-08-23T12:03:49.436Z,51.74
2018-08-23T12:06:18.691Z,51.88
2018-08-23T12:08:47.841Z,51.59
2018-08-23T12:11:17.023Z,51.36
2018-08-23T12:13:47.525Z,51.89
2018-08-23T12:16:16.687Z,51.60
2018-08-23T12:18:45.780Z,51.29
2018-08-23T12:21:14.835Z,51.03
2018-08-23T12:23:43.925Z,50.98
2018-08-23T12:26:13.373Z,50.95
2018-08-23T12:28:48.132Z,50.42
2018-08-23T12:31:17.571Z,50.72
2018-08-23T12:33:46.668Z,50.37
2018-08-23T12:36:19.999Z,50.41
2018-08-23T12:38:54.426Z,49.54
2018-08-23T12:41:28.880Z,49.84
2018-08-23T12:43:58.025Z,49.99
2018-08-23T12:46:27.297Z,49.80
2018-08-23T12:48:57.887Z,49.75
2018-08-23T12:51:27.051Z,49.47
2018-08-23T12:53:56.182Z,49.81
2018-08-23T12:56:25.385Z,50.06
2018-08-23T12:58:54.648Z,49.98
2018-08-23T13:01:23.757Z,50.10
2018-08-23T13:03:53.323Z,49.86
2018-08-23T13:06:22.582Z,49.31
2018-08-23T13:08:52.262Z,49.77
2018-08-23T13:11:21.449Z,49.71
2018-08-23T13:13:50.671Z,49.43
2018-08-23T13:16:19.932Z,49.57
2018-08-23T13:18:49.173Z,49.33
2018-08-23T13:21:18.561Z,49.69
2018-08-23T13:23:47.865Z,49.40
2018-08-23T13:26:17.113Z,49.48
2018-08-23T13:28:46.236Z,49.09
2018-08-23T13:31:15.332Z,48.91
2018-08-23T13:33:44.507Z,48.81
2018-08-23T13:36:13.661Z,48.10
2018-08-23T13:38:42.881Z,48.00
2018-08-23T13:41:12.039Z,48.15
2018-08-23T13:43:41.240Z,48.36
2018-08-23T13:46:10.631Z,48.10
2018-08-23T13:48:39.682Z,48.25
2018-08-23T13:51:09.343Z,48.20
2018-08-23T13:53:38.801Z,48.51
2018-08-23T13:56:08.143Z,48.38
2018-08-23T13:58:37.252Z,48.06
2018-08-23T14:01:06.511Z,48.48
2018-08-23T14:03:35.624Z,48.07
2018-08-23T14:06:04.856Z,48.21
2018-08-23T14:08:34.192Z,48.20
2018-08-23T14:11:03.396Z,48.06
2018-08-23T14:13:33.630Z,47.61
2018-08-23T14:16:04.051Z,47.44
2018-08-23T14:18:34.247Z,47.29
2018-08-23T14:21:03.631Z,47.13
2018-08-23T14:23:32.744Z,47.26
2018-08-23T14:26:01.878Z,46.91
2018-08-23T14:28:30.945Z,46.80
2018-08-23T14:31:00.314Z,46.83
2018-08-23T14:33:29.957Z,46.93
2018-08-23T14:35:59.528Z,47.38
2018-08-23T14:38:28.724Z,47.08
2018-08-23T14:40:58.337Z,46.78
2018-08-23T14:43:27.975Z,46.80
2018-08-23T14:46:02.523Z,47.25
2018-08-23T14:48:31.635Z,46.95
2018-08-23T14:51:00.711Z,46.97
2018-08-23T14:53:30.844Z,47.48
2018-08-23T14:56:05.329Z,47.76
2018-08-23T14:58:34.471Z,47.79
2018-08-23T15:01:03.673Z,48.03
2018-08-23T15:03:32.799Z,47.85
2018-08-23T15:06:01.909Z,47.70
2018-08-23T15:08:31.174Z,48.05
2018-08-23T15:11:00.296Z,47.91
2018-08-23T15:13:30.571Z,48.09
2018-08-23T15:15:59.695Z,48.15
2018-08-23T15:18:28.815Z,47.86
2018-08-23T15:20:58.945Z,47.97
2018-08-23T15:23:28.555Z,48.02
2018-08-23T15:25:57.720Z,48.45
2018-08-23T15:28:27.027Z,48.03
2018-08-23T15:30:56.199Z,48.13
2018-08-23T15:33:25.286Z,48.33
2018-08-23T15:35:54.488Z,48.07
2018-08-23T15:38:23.709Z,48.00
2018-08-23T15:40:52.926Z,48.24
2018-08-23T15:43:22.206Z,48.08
2018-08-23T15:45:51.275Z,48.24
2018-08-23T15:48:20.487Z,48.40
2018-08-23T15:50:49.707Z,48.19
2018-08-23T15:53:18.883Z,48.48
2018-08-23T15:55:48.380Z,48.55
2018-08-23T15:58:17.695Z,48.79
2018-08-23T16:00:46.877Z,48.52
2018-08-23T16:03:15.972Z,48.56
2018-08-23T16:05:45.045Z,48.98
2018-08-23T16:08:14.137Z,48.88
2018-08-23T16:10:43.293Z,48.86
2018-08-23T16:13:12.459Z,48.38
2018-08-23T16:15:41.721Z,48.78
2018-08-23T16:18:16.099Z,48.19
2018-08-23T16:20:47.505Z,47.97
2018-08-23T16:23:16.618Z,48.28
2018-08-23T16:25:45.808Z,48.23
2018-08-23T16:28:14.900Z,48.09
2018-08-23T16:30:49.351Z,47.87
2018-08-23T16:33:18.549Z,47.91
2018-08-23T16:35:47.619Z,47.45
2018-08-23T16:38:16.745Z,47.55
2018-08-23T16:40:45.811Z,47.76
2018-08-23T16:43:15.072Z,47.46
2018-08-23T16:45:44.226Z,47.41
2018-08-23T16:48:14.231Z,47.58
2018-08-23T16:50:43.404Z,47.12
2018-08-23T16:53:12.567Z,47.27
2018-08-23T16:55:41.832Z,47.28
2018-08-23T16:58:10.999Z,47.57
2018-08-23T17:00:40.127Z,47.26
2018-08-23T17:03:09.462Z,47.35
2018-08-23T17:05:38.539Z,47.90
2018-08-23T17:08:07.619Z,47.65
2018-08-23T17:10:36.692Z,48.02
2018-08-23T17:13:05.813Z,47.97
2018-08-23T17:15:40.032Z,47.66
2018-08-23T17:18:09.317Z,48.10
2018-08-23T17:20:38.473Z,47.97
2018-08-23T17:23:07.684Z,48.00
2018-08-23T17:25:36.924Z,47.91
2018-08-23T17:28:06.394Z,48.01
2018-08-23T17:30:35.512Z,47.57
2018-08-23T17:33:05.258Z,47.80
2018-08-23T17:35:34.440Z,48.06
2018-08-23T17:38:03.676Z,48.21
2018-08-23T17:40:32.744Z,48.23
2018-08-23T17:43:01.958Z,48.53
2018-08-23T17:45:31.252Z,48.77
2018-08-23T17:48:00.337Z,48.96
2018-08-23T17:50:29.454Z,49.12
2018-08-23T17:52:58.838Z,50.01
2018-08-23T17:55:27.951Z,50.80
2018-08-23T17:57:57.295Z,50.77
2018-08-23T18:00:26.416Z,51.40
2018-08-23T18:02:55.488Z,51.23
2018-08-23T18:05:24.640Z,51.48
2018-08-23T18:07:53.797Z,51.87
2018-08-23T18:10:22.892Z,52.14
2018-08-23T18:12:52.041Z,51.65
2018-08-23T18:15:21.466Z,51.56
2018-08-23T18:17:50.935Z,52.02
2018-08-23T18:20:20.253Z,51.93
2018-08-23T18:22:49.466Z,51.75
2018-08-23T18:25:18.643Z,51.85
2018-08-23T18:27:47.980Z,51.42
2018-08-23T18:30:17.185Z,51.73
2018-08-23T18:32:46.623Z,51.52
2018-08-23T18:35:15.704Z,51.33
2018-08-23T18:37:45.137Z,51.77
2018-08-23T18:40:14.407Z,51.66
2018-08-23T18:42:43.514Z,51.15
2018-08-23T18:45:12.778Z,50.89
2018-08-23T18:47:42.980Z,50.38
2018-08-23T18:50:12.103Z,50.40
2018-08-23T18:52:41.454Z,50.54
2018-08-23T18:55:10.758Z,50.66
2018-08-23T18:57:39.919Z,50.32
2018-08-23T19:00:09.214Z,50.62
2018-08-23T19:02:38.318Z,50.52
2018-08-23T19:05:07.430Z,51.03
2018-08-23T19:07:40.464Z,51.04
2018-08-23T19:10:10.354Z,50.52
2018-08-23T19:12:39.639Z,50.71
2018-08-23T19:15:09.254Z,51.47
2018-08-23T19:23:55.217Z,51.43
2018-08-23T19:26:24.340Z,51.29
2018-08-23T19:28:53.569Z,51.64
2018-08-23T19:31:22.749Z,51.65
2018-08-23T19:33:52.156Z,51.88
2018-08-23T19:36:21.375Z,52.13
2018-08-23T19:38:50.535Z,51.58
2018-08-23T19:41:19.778Z,52.18
2018-08-23T19:43:48.974Z,52.03
2018-08-23T19:47:26.295Z,52.23
2018-08-23T19:49:57.920Z,51.68
2018-08-23T19:52:27.104Z,51.54
2018-08-23T19:54:56.309Z,51.72
2018-08-23T19:57:27.988Z,51.42
2018-08-23T19:59:57.149Z,51.02
2018-08-23T20:02:26.220Z,51.46
2018-08-23T20:04:55.328Z,50.95
2018-08-23T20:07:24.815Z,51.24
2018-08-23T20:09:53.900Z,51.40
2018-08-23T20:12:28.625Z,51.29
2018-08-23T20:15:03.404Z,51.61
2018-08-23T20:17:32.767Z,51.71
2018-08-23T20:20:01.988Z,51.38
2018-08-23T20:22:31.088Z,51.10
2018-08-23T20:25:00.290Z,50.99
2018-08-23T20:27:29.591Z,50.70
2018-08-23T20:29:58.687Z,50.87
2018-08-23T20:32:27.739Z,50.79
2018-08-23T20:34:56.892Z,50.51
2018-08-23T20:37:25.947Z,50.57
2018-08-23T20:39:55.068Z,50.64
2018-08-23T20:42:24.790Z,50.63
2018-08-23T20:44:53.852Z,50.58
2018-08-23T20:47:22.987Z,50.12
2018-08-23T20:49:52.088Z,50.34
2018-08-23T20:52:21.292Z,50.21
2018-08-23T20:54:50.371Z,49.94
2018-08-23T20:57:19.444Z,50.08
2018-08-23T20:59:48.536Z,50.31
2018-08-23T21:02:17.648Z,50.05
2018-08-23T21:04:47.046Z,50.11
2018-08-23T21:07:16.140Z,50.02
2018-08-23T21:09:45.242Z,49.70
2018-08-23T21:12:14.553Z,49.76
2018-08-23T21:14:43.639Z,49.82
2018-08-23T21:17:12.696Z,50.06
2018-08-23T21:19:41.756Z,49.96
2018-08-23T21:22:10.919Z,49.96
2018-08-23T21:24:40.145Z,50.36
2018-08-23T21:27:09.223Z,50.30
2018-08-23T21:29:38.303Z,50.52
2018-08-23T21:32:07.483Z,50.24
2018-08-23T21:34:36.638Z,50.36
2018-08-23T21:37:05.827Z,50.32
2018-08-23T21:39:35.056Z,50.01
2018-08-23T21:42:04.136Z,50.20
2018-08-23T21:44:33.230Z,50.01
2018-08-23T21:47:02.300Z,50.49
2018-08-23T21:49:31.361Z,50.39
2018-08-23T21:52:00.439Z,50.80
2018-08-23T21:54:29.568Z,50.64
2018-08-23T21:56:58.749Z,50.65
2018-08-23T21:59:27.872Z,50.98
2018-08-23T22:02:02.300Z,50.72
2018-08-23T22:04:31.432Z,50.73
2018-08-23T22:07:00.578Z,50.70
2018-08-23T22:09:29.711Z,50.64
2018-08-23T22:11:58.988Z,50.64
2018-08-23T22:14:28.052Z,50.66
2018-08-23T22:16:57.121Z,50.56
2018-08-23T22:19:26.319Z,50.56
2018-08-23T22:21:55.397Z,50.85
2018-08-23T22:24:24.506Z,50.83
2018-08-23T22:26:53.685Z,50.62
2018-08-23T22:29:22.950Z,50.38
2018-08-23T22:31:52.147Z,50.34
2018-08-23T22:34:21.260Z,50.50
2018-08-23T22:36:50.338Z,50.44
2018-08-23T22:39:19.468Z,50.54
2018-08-23T22:41:48.712Z,50.70
2018-08-23T22:44:17.918Z,50.33
2018-08-23T22:46:47.428Z,50.64
2018-08-23T22:49:16.504Z,50.71
2018-08-23T22:51:45.594Z,50.61
2018-08-23T22:54:14.768Z,50.70
2018-08-23T22:56:44.112Z,50.17
2018-08-23T22:59:13.217Z,50.50
2018-08-23T23:01:42.515Z,50.43
2018-08-23T23:04:16.878Z,50.15
2018-08-23T23:06:45.946Z,50.41
2018-08-23T23:09:15.152Z,50.28
2018-08-23T23:11:44.405Z,50.54
2018-08-23T23:14:13.618Z,50.69
2018-08-23T23:16:42.752Z,50.43
2018-08-23T23:19:11.855Z,50.23
2018-08-23T23:21:41.191Z,50.22
2018-08-23T23:24:14.467Z,50.20
2018-08-23T23:26:43.562Z,50.55
2018-08-23T23:29:12.632Z,50.34
2018-08-23T23:31:41.739Z,50.42
2018-08-23T23:34:10.800Z,50.56
2018-08-23T23:36:39.870Z,50.23
2018-08-23T23:39:09.304Z,50.52
2018-08-23T23:41:38.370Z,50.25
2018-08-23T23:44:07.519Z,50.64
2018-08-23T23:46:36.612Z,50.37
2018-08-23T23:49:05.736Z,50.28
2018-08-23T23:51:34.933Z,50.74
2018-08-23T23:54:04.020Z,50.28
2018-08-23T23:56:33.100Z,50.65
2018-08-23T23:59:02.184Z,50.80
